createdAt,value
2022-09-29T00:01:49.182Z,98161.16
2022-09-29T00:03:50.971Z,98165.69
2022-09-29T00:05:53.967Z,98162.19
2022-09-29T00:07:55.670Z,98158.66
2022-09-29T00:09:57.320Z,98161.50
2022-09-29T00:11:59.015Z,98167.38
2022-09-29T00:14:00.788Z,98164.03
2022-09-29T00:16:02.849Z,98166.72
2022-09-29T00:18:19.798Z,98167.72
2022-09-29T00:20:21.471Z,98175.63
2022-09-29T00:22:23.137Z,98170.38
2022-09-29T00:24:24.950Z,98164.34
2022-09-29T00:26:26.599Z,98175.06
2022-09-29T00:28:28.500Z,98168.88
2022-09-29T00:30:30.190Z,98169.72
2022-09-29T00:32:31.812Z,98173.25
2022-09-29T00:34:33.498Z,98173.06
2022-09-29T00:36:35.233Z,98169.56
2022-09-29T00:38:36.966Z,98181.81
2022-09-29T00:40:38.696Z,98182.84
2022-09-29T00:42:40.452Z,98188.03
2022-09-29T00:45:03.312Z,98181.81
2022-09-29T00:47:05.076Z,98189.88
2022-09-29T00:49:25.106Z,98185.53
2022-09-29T00:51:26.790Z,98187.19
2022-09-29T00:53:28.482Z,98189.19
2022-09-29T00:55:43.154Z,98193.72
2022-09-29T00:57:48.746Z,98192.91
2022-09-29T00:59:50.364Z,98195.59
2022-09-29T01:01:52.152Z,98200.28
2022-09-29T01:03:56.506Z,98194.06
2022-09-29T01:05:59.119Z,98198.56
2022-09-29T01:08:30.520Z,98204.28
2022-09-29T01:10:32.217Z,98208.47
2022-09-29T01:12:33.973Z,98208.31
2022-09-29T01:14:35.925Z,98203.66
2022-09-29T01:16:38.324Z,98206.97
2022-09-29T01:18:40.078Z,98196.22
2022-09-29T01:21:04.688Z,98211.00
2022-09-29T01:23:18.391Z,98196.56
2022-09-29T01:25:44.660Z,98195.72
2022-09-29T01:27:51.400Z,98198.56
2022-09-29T01:30:21.566Z,98190.16
2022-09-29T01:32:50.897Z,98191.31
2022-09-29T01:35:13.549Z,98193.16
2022-09-29T01:37:26.612Z,98198.41
2022-09-29T01:41:42.162Z,98200.22
2022-09-29T01:43:47.126Z,98207.97
2022-09-29T01:45:59.460Z,98206.28
2022-09-29T01:48:13.492Z,98211.34
2022-09-29T01:50:18.755Z,98223.75
2022-09-29T01:52:22.470Z,98222.09
2022-09-29T01:55:03.027Z,98221.22
2022-09-29T01:57:25.359Z,98229.13
2022-09-29T01:59:41.870Z,98235.66
2022-09-29T02:01:43.816Z,98226.78
2022-09-29T02:03:48.898Z,98226.78
2022-09-29T02:05:58.381Z,98226.59
2022-09-29T02:08:09.129Z,98231.13
2022-09-29T02:10:32.277Z,98227.75
2022-09-29T02:12:34.246Z,98225.25
2022-09-29T02:14:42.346Z,98228.09
2022-09-29T02:16:52.764Z,98227.06
2022-09-29T02:19:01.357Z,98237.81
2022-09-29T02:21:03.158Z,98239.66
2022-09-29T02:23:04.843Z,98235.44
2022-09-29T02:25:08.128Z,98236.28
2022-09-29T02:27:10.141Z,98233.59
2022-09-29T02:29:11.801Z,98237.16
2022-09-29T02:31:13.933Z,98240.00
2022-09-29T02:33:23.032Z,98234.78
2022-09-29T02:35:24.733Z,98229.25
2022-09-29T02:38:05.182Z,98224.72
2022-09-29T02:40:22.031Z,98224.38
2022-09-29T02:42:45.632Z,98234.50
2022-09-29T02:45:24.065Z,98235.34
2022-09-29T02:47:49.451Z,98244.09
2022-09-29T02:50:23.448Z,98239.53
2022-09-29T02:52:38.448Z,98240.41
2022-09-29T02:55:18.481Z,98246.63
2022-09-29T02:57:28.907Z,98242.91
2022-09-29T02:59:30.528Z,98244.63
2022-09-29T03:01:33.027Z,98244.63
2022-09-29T03:03:34.941Z,98251.81
2022-09-29T03:05:36.773Z,98248.28
2022-09-29T03:07:38.705Z,98242.91
2022-09-29T03:09:40.401Z,98242.09
2022-09-29T03:11:42.057Z,98243.75
2022-09-29T03:13:43.725Z,98243.94
2022-09-29T03:15:45.389Z,98244.78
2022-09-29T03:17:47.100Z,98248.28
2022-09-29T03:19:48.821Z,98250.28
2022-09-29T03:21:50.522Z,98245.78
2022-09-29T03:23:56.771Z,98246.63
2022-09-29T03:25:59.364Z,98251.16
2022-09-29T03:28:01.188Z,98253.16
2022-09-29T03:30:03.128Z,98257.66
2022-09-29T03:32:05.181Z,98254.31
2022-09-29T03:34:06.958Z,98257.16
2022-09-29T03:36:08.757Z,98267.06
2022-09-29T03:38:10.479Z,98256.63
2022-09-29T03:40:12.207Z,98261.97
2022-09-29T03:42:13.878Z,98268.03
2022-09-29T03:44:15.664Z,98266.19
2022-09-29T03:46:17.419Z,98265.34
2022-09-29T03:48:21.863Z,98271.88
2022-09-29T03:50:25.928Z,98276.44
2022-09-29T03:52:27.632Z,98280.13
2022-09-29T03:54:29.759Z,98283.66
2022-09-29T03:56:31.679Z,98282.31
2022-09-29T03:58:33.637Z,98289.59
2022-09-29T04:00:35.463Z,98285.91
2022-09-29T04:02:37.212Z,98280.84
2022-09-29T04:04:38.953Z,98286.56
2022-09-29T04:06:40.718Z,98284.84
2022-09-29T04:08:42.470Z,98286.84
2022-09-29T04:10:45.799Z,98282.63
2022-09-29T04:12:47.522Z,98284.69
2022-09-29T04:14:49.215Z,98290.28
2022-09-29T04:16:50.992Z,98281.91
2022-09-29T04:18:52.768Z,98291.97
2022-09-29T04:20:55.118Z,98287.91
2022-09-29T04:22:56.851Z,98288.22
2022-09-29T04:24:58.562Z,98290.66
2022-09-29T04:27:02.411Z,98298.25
2022-09-29T04:29:04.138Z,98291.69
2022-09-29T04:31:05.907Z,98292.03
2022-09-29T04:33:07.676Z,98284.25
2022-09-29T04:35:09.481Z,98289.28
2022-09-29T04:37:11.245Z,98286.22
2022-09-29T04:39:12.948Z,98295.25
2022-09-29T04:41:14.653Z,98282.84
2022-09-29T04:43:16.387Z,98294.75
2022-09-29T04:45:18.069Z,98295.59
2022-09-29T04:47:19.783Z,98295.59
2022-09-29T04:49:21.458Z,98287.53
2022-09-29T04:51:23.170Z,98291.06
2022-09-29T04:53:24.894Z,98288.56
2022-09-29T04:55:26.748Z,98285.00
2022-09-29T04:57:28.490Z,98291.22
2022-09-29T04:59:30.342Z,98295.69
2022-09-29T05:01:31.988Z,98290.66
2022-09-29T05:03:33.739Z,98293.41
2022-09-29T05:05:35.412Z,98290.91
2022-09-29T05:07:37.559Z,98293.50
2022-09-29T05:09:39.448Z,98296.63
2022-09-29T05:11:41.083Z,98296.38
2022-09-29T05:13:42.800Z,98295.22
2022-09-29T05:15:44.416Z,98298.63
2022-09-29T05:17:46.038Z,98299.47
2022-09-29T05:19:47.709Z,98301.16
2022-09-29T05:21:49.367Z,98305.38
2022-09-29T05:23:51.051Z,98316.97
2022-09-29T05:25:52.747Z,98319.81
2022-09-29T05:27:54.561Z,98329.69
2022-09-29T05:29:56.262Z,98336.06
2022-09-29T05:31:58.025Z,98335.38
2022-09-29T05:33:59.731Z,98338.06
2022-09-29T05:36:01.806Z,98332.69
2022-09-29T05:38:03.522Z,98328.16
2022-09-29T05:40:05.706Z,98331.53
2022-09-29T05:42:10.651Z,98329.69
2022-09-29T05:44:12.360Z,98332.38
2022-09-29T05:46:14.184Z,98335.75
2022-09-29T05:48:16.038Z,98342.97
2022-09-29T05:50:17.770Z,98333.41
2022-09-29T05:52:19.490Z,98341.31
2022-09-29T05:54:21.268Z,98348.50
2022-09-29T05:56:24.710Z,98346.81
2022-09-29T05:58:26.440Z,98343.28
2022-09-29T06:00:28.156Z,98344.00
2022-09-29T06:02:29.922Z,98337.75
2022-09-29T06:04:31.630Z,98336.91
2022-09-29T06:06:33.309Z,98342.13
2022-09-29T06:08:35.287Z,98352.88
2022-09-29T06:10:36.968Z,98351.19
2022-09-29T06:12:38.813Z,98347.50
2022-09-29T06:14:40.465Z,98351.88
2022-09-29T06:16:42.161Z,98358.06
2022-09-29T06:18:43.840Z,98350.88
2022-09-29T06:20:45.622Z,98354.56
2022-09-29T06:22:47.399Z,98351.19
2022-09-29T06:24:49.112Z,98349.19
2022-09-29T06:26:50.806Z,98350.25
2022-09-29T06:28:53.376Z,98342.25
2022-09-29T06:31:02.058Z,98338.06
2022-09-29T06:33:03.853Z,98342.03
2022-09-29T06:35:05.810Z,98341.81
2022-09-29T06:37:09.103Z,98340.66
2022-09-29T06:39:12.870Z,98343.50
2022-09-29T06:41:14.760Z,98345.50
2022-09-29T06:43:16.438Z,98348.50
2022-09-29T06:45:21.948Z,98350.78
2022-09-29T06:47:23.933Z,98351.59
2022-09-29T06:49:25.765Z,98353.47
2022-09-29T06:51:38.949Z,98359.97
2022-09-29T06:53:44.914Z,98352.06
2022-09-29T06:55:55.650Z,98359.16
2022-09-29T06:58:01.401Z,98353.78
2022-09-29T07:00:05.862Z,98356.59
2022-09-29T07:02:10.097Z,98360.31
2022-09-29T07:04:12.047Z,98354.06
2022-09-29T07:06:21.091Z,98353.91
2022-09-29T07:08:22.852Z,98361.13
2022-09-29T07:10:24.682Z,98373.53
2022-09-29T07:12:26.346Z,98370.88
2022-09-29T07:14:28.033Z,98374.41
2022-09-29T07:16:29.789Z,98368.19
2022-09-29T07:18:31.527Z,98374.25
2022-09-29T07:20:33.313Z,98379.47
2022-09-29T07:22:35.073Z,98386.00
2022-09-29T07:24:36.878Z,98381.59
2022-09-29T07:26:38.777Z,98390.66
2022-09-29T07:28:40.498Z,98388.13
2022-09-29T07:30:42.196Z,98392.66
2022-09-29T07:32:54.668Z,98402.38
2022-09-29T07:35:01.304Z,98391.97
2022-09-29T07:37:03.038Z,98396.25
2022-09-29T07:39:04.830Z,98395.75
2022-09-29T07:41:11.045Z,98392.34
2022-09-29T07:43:12.767Z,98396.88
2022-09-29T07:45:14.914Z,98404.94
2022-09-29T07:47:16.623Z,98406.47
2022-09-29T07:49:18.818Z,98415.69
2022-09-29T07:51:20.580Z,98410.31
2022-09-29T07:53:22.467Z,98411.28
2022-09-29T07:55:24.156Z,98411.97
2022-09-29T07:57:25.918Z,98413.00
2022-09-29T07:59:27.870Z,98410.31
2022-09-29T08:01:29.682Z,98407.91
2022-09-29T08:03:31.423Z,98407.91
2022-09-29T08:05:33.436Z,98413.28
2022-09-29T08:07:35.106Z,98417.66
2022-09-29T08:09:41.229Z,98419.34
2022-09-29T08:11:43.398Z,98429.09
2022-09-29T08:13:45.102Z,98444.88
2022-09-29T08:15:46.817Z,98439.84
2022-09-29T08:17:48.514Z,98438.97
2022-09-29T08:19:50.175Z,98448.03
2022-09-29T08:21:51.999Z,98449.88
2022-09-29T08:23:53.663Z,98446.31
2022-09-29T08:26:05.938Z,98450.84
2022-09-29T08:28:07.654Z,98455.38
2022-09-29T08:30:10.714Z,98462.44
2022-09-29T08:32:12.495Z,98457.22
2022-09-29T08:34:14.460Z,98460.75
2022-09-29T08:36:16.598Z,98457.06
2022-09-29T08:38:18.257Z,98464.28
2022-09-29T08:40:20.103Z,98463.28
2022-09-29T08:42:57.057Z,98460.75
2022-09-29T08:45:11.567Z,98466.97
2022-09-29T08:47:19.282Z,98465.28
2022-09-29T08:49:32.932Z,98472.31
2022-09-29T08:51:48.105Z,98469.63
2022-09-29T08:53:59.288Z,98470.34
2022-09-29T08:56:09.746Z,98469.50
2022-09-29T08:58:12.668Z,98481.91
2022-09-29T09:00:15.480Z,98482.78
2022-09-29T09:02:24.721Z,98481.91
2022-09-29T09:04:45.138Z,98463.28
2022-09-29T09:06:59.436Z,98485.47
2022-09-29T09:09:28.597Z,98485.47
2022-09-29T09:12:20.459Z,98490.97
2022-09-29T09:14:40.606Z,98498.88
2022-09-29T09:17:01.365Z,98493.78
2022-09-29T09:19:36.420Z,98502.53
2022-09-29T09:21:46.319Z,98502.53
2022-09-29T09:24:00.745Z,98502.53
2022-09-29T09:26:02.791Z,98502.53
2022-09-29T09:28:06.820Z,98502.53
2022-09-29T09:30:16.231Z,98505.38
2022-09-29T09:32:20.888Z,98510.72
2022-09-29T09:34:41.169Z,98512.59
2022-09-29T09:37:05.717Z,98515.97
2022-09-29T09:39:49.810Z,98517.94
2022-09-29T09:42:13.381Z,98517.81
2022-09-29T09:44:34.102Z,98527.72
2022-09-29T09:46:45.576Z,98524.31
2022-09-29T09:49:03.886Z,98523.31
2022-09-29T09:51:29.339Z,98517.25
2022-09-29T09:53:48.862Z,98517.25
2022-09-29T09:55:58.832Z,98520.63
2022-09-29T09:58:19.576Z,98519.78
2022-09-29T10:00:26.828Z,98515.44
2022-09-29T10:02:28.593Z,98515.56
2022-09-29T10:04:30.515Z,98512.59
2022-09-29T10:06:32.243Z,98515.13
2022-09-29T10:08:34.508Z,98521.34
2022-09-29T10:10:39.182Z,98518.78
2022-09-29T10:12:45.970Z,98519.66
2022-09-29T10:14:53.679Z,98524.16
2022-09-29T10:16:58.254Z,98522.34
2022-09-29T10:19:00.080Z,98533.06
2022-09-29T10:21:01.815Z,98527.72
2022-09-29T10:23:19.403Z,98543.81
2022-09-29T10:25:57.632Z,98543.81
2022-09-29T10:27:59.421Z,98556.53
2022-09-29T10:30:01.133Z,98560.91
2022-09-29T10:32:06.756Z,98554.56
2022-09-29T10:34:10.950Z,98562.59
2022-09-29T10:36:12.680Z,98558.91
2022-09-29T10:38:20.762Z,98558.06
2022-09-29T10:40:22.499Z,98564.28
2022-09-29T10:42:35.704Z,98572.63
2022-09-29T10:44:39.251Z,98579.69
2022-09-29T10:46:49.821Z,98582.38
2022-09-29T10:49:16.356Z,98586.75
2022-09-29T10:51:20.306Z,98592.13
2022-09-29T10:53:24.267Z,98600.19
2022-09-29T10:55:30.134Z,98602.88
2022-09-29T10:57:33.094Z,98602.88
2022-09-29T11:02:34.412Z,98594.94
2022-09-29T11:04:36.144Z,98603.69
2022-09-29T11:06:43.644Z,98602.00
2022-09-29T11:09:08.167Z,98617.25
2022-09-29T11:11:25.236Z,98612.91
2022-09-29T11:13:32.779Z,98618.09
2022-09-29T11:15:40.412Z,98619.94
2022-09-29T11:17:43.185Z,98616.56
2022-09-29T11:19:44.888Z,98616.56
2022-09-29T11:22:13.338Z,98619.25
2022-09-29T11:24:18.040Z,98619.25
2022-09-29T11:26:43.319Z,98619.25
2022-09-29T11:28:54.513Z,98624.34
2022-09-29T11:31:10.851Z,98621.78
2022-09-29T11:33:41.205Z,98633.38
2022-09-29T11:36:08.226Z,98634.38
2022-09-29T11:38:19.110Z,98632.53
2022-09-29T11:40:33.528Z,98622.63
2022-09-29T11:42:56.611Z,98626.31
2022-09-29T11:44:59.831Z,98640.44
2022-09-29T11:47:32.021Z,98633.38
2022-09-29T11:49:42.445Z,98643.13
2022-09-29T11:52:02.011Z,98646.66
2022-09-29T11:54:12.442Z,98652.84
2022-09-29T11:56:38.515Z,98651.88
2022-09-29T11:59:16.509Z,98650.88
2022-09-29T12:02:04.422Z,98654.56
2022-09-29T12:04:45.026Z,98665.31
2022-09-29T12:06:54.984Z,98662.47
2022-09-29T12:09:00.462Z,98668.97
2022-09-29T12:11:40.466Z,98676.03
2022-09-29T12:13:47.019Z,98675.16
2022-09-29T12:16:41.649Z,98674.34
2022-09-29T12:19:12.176Z,98678.84
2022-09-29T12:21:17.613Z,98677.03
2022-09-29T12:23:21.752Z,98679.69
2022-09-29T12:25:27.740Z,98676.31
2022-09-29T12:27:40.543Z,98680.72
2022-09-29T12:29:44.829Z,98681.53
2022-09-29T12:31:47.871Z,98680.72
2022-09-29T12:33:55.833Z,98688.75
2022-09-29T12:36:12.334Z,98686.78
2022-09-29T12:38:31.333Z,98683.38
2022-09-29T12:40:41.616Z,98689.47
2022-09-29T12:43:01.905Z,98689.59
2022-09-29T12:45:31.704Z,98685.91
2022-09-29T12:47:45.528Z,98685.78
2022-09-29T12:49:57.310Z,98691.84
2022-09-29T12:51:58.980Z,98689.88
2022-09-29T12:54:09.943Z,98687.88
2022-09-29T12:56:24.691Z,98692.13
2022-09-29T12:58:45.310Z,98695.03
2022-09-29T13:00:49.226Z,98697.16
2022-09-29T13:03:06.185Z,98691.25
2022-09-29T13:05:32.521Z,98692.50
2022-09-29T13:07:58.763Z,98699.97
2022-09-29T13:10:39.560Z,98701.13
2022-09-29T13:13:18.636Z,98701.13
2022-09-29T13:15:24.683Z,98700.28
2022-09-29T13:17:53.269Z,98704.81
2022-09-29T13:20:20.003Z,98702.13
2022-09-29T13:22:57.243Z,98704.81
2022-09-29T13:25:20.063Z,98714.53
2022-09-29T13:27:33.604Z,98716.38
2022-09-29T13:29:44.456Z,98713.84
2022-09-29T13:31:46.874Z,98722.59
2022-09-29T13:33:49.316Z,98722.59
2022-09-29T13:35:51.126Z,98718.38
2022-09-29T13:38:06.521Z,98724.56
2022-09-29T13:40:11.463Z,98720.06
2022-09-29T13:42:38.385Z,98724.75
2022-09-29T13:44:40.827Z,98726.41
2022-09-29T13:46:42.591Z,98728.41
2022-09-29T13:48:47.801Z,98734.63
2022-09-29T13:50:50.718Z,98731.78
2022-09-29T13:52:52.377Z,98728.50
2022-09-29T13:54:54.553Z,98725.94
2022-09-29T13:57:17.530Z,98732.88
2022-09-29T13:59:22.225Z,98722.56
2022-09-29T14:01:36.695Z,98732.34
2022-09-29T14:03:45.051Z,98730.13
2022-09-29T14:05:47.112Z,98732.97
2022-09-29T14:07:49.464Z,98736.75
2022-09-29T14:09:51.373Z,98733.75
2022-09-29T14:11:53.317Z,98735.53
2022-09-29T14:14:19.629Z,98742.22
2022-09-29T14:16:47.235Z,98739.25
2022-09-29T14:19:00.386Z,98746.22
2022-09-29T14:21:03.815Z,98746.91
2022-09-29T14:23:08.283Z,98736.13
2022-09-29T14:25:09.947Z,98737.31
2022-09-29T14:27:14.715Z,98739.03
2022-09-29T14:29:29.176Z,98739.78
2022-09-29T14:31:31.022Z,98739.41
2022-09-29T14:33:41.093Z,98751.22
2022-09-29T14:35:44.833Z,98748.84
2022-09-29T14:37:48.000Z,98742.34
2022-09-29T14:39:50.613Z,98741.50
2022-09-29T14:41:52.419Z,98753.63
2022-09-29T14:43:57.623Z,98746.91
2022-09-29T14:46:02.426Z,98750.44
2022-09-29T14:48:08.464Z,98751.13
2022-09-29T14:50:49.091Z,98760.94
2022-09-29T14:53:12.472Z,98766.16
2022-09-29T14:55:33.145Z,98761.44
2022-09-29T14:57:37.923Z,98763.63
2022-09-29T14:59:50.301Z,98768.72
2022-09-29T15:02:19.656Z,98771.56
2022-09-29T15:04:21.486Z,98776.81
2022-09-29T15:06:25.634Z,98779.88
2022-09-29T15:08:29.433Z,98779.03
2022-09-29T15:10:49.186Z,98776.63
2022-09-29T15:12:50.906Z,98784.94
2022-09-29T15:14:55.781Z,98790.16
2022-09-29T15:17:33.029Z,98786.50
2022-09-29T15:19:40.725Z,98793.06
2022-09-29T15:22:05.595Z,98796.84
2022-09-29T15:24:12.988Z,98793.69
2022-09-29T15:26:15.398Z,98791.19
2022-09-29T15:28:32.923Z,98798.28
2022-09-29T15:30:34.712Z,98797.78
2022-09-29T15:32:36.460Z,98796.13
2022-09-29T15:34:38.198Z,98802.84
2022-09-29T15:36:40.166Z,98810.13
2022-09-29T15:38:42.142Z,98801.34
2022-09-29T15:40:44.201Z,98815.03
2022-09-29T15:42:46.073Z,98809.13
2022-09-29T15:44:54.898Z,98823.31
2022-09-29T15:46:57.209Z,98817.72
2022-09-29T15:49:28.260Z,98810.13
2022-09-29T15:51:30.708Z,98812.16
2022-09-29T15:53:32.466Z,98821.63
2022-09-29T15:55:34.186Z,98821.44
2022-09-29T15:57:45.572Z,98823.97
2022-09-29T15:59:51.845Z,98835.13
2022-09-29T16:01:56.159Z,98828.53
2022-09-29T16:04:00.076Z,98825.66
2022-09-29T16:06:28.795Z,98843.06
2022-09-29T16:08:31.498Z,98845.41
2022-09-29T16:10:35.282Z,98842.53
2022-09-29T16:12:39.332Z,98843.56
2022-09-29T16:14:41.102Z,98846.59
2022-09-29T16:16:44.600Z,98841.84
2022-09-29T16:18:49.257Z,98838.63
2022-09-29T16:20:51.366Z,98837.97
2022-09-29T16:22:53.347Z,98840.16
2022-09-29T16:25:23.766Z,98847.63
2022-09-29T16:27:50.945Z,98848.28
2022-09-29T16:30:21.409Z,98844.56
2022-09-29T16:32:32.212Z,98859.09
2022-09-29T16:34:34.240Z,98861.63
2022-09-29T16:36:36.019Z,98862.09
2022-09-29T16:38:41.585Z,98866.53
2022-09-29T16:40:43.418Z,98869.53
2022-09-29T16:42:45.266Z,98871.41
2022-09-29T16:44:50.684Z,98869.91
2022-09-29T16:47:10.459Z,98872.09
2022-09-29T16:49:21.464Z,98868.75
2022-09-29T16:51:39.671Z,98870.84
2022-09-29T16:53:41.993Z,98874.44
2022-09-29T16:55:43.684Z,98867.50
2022-09-29T16:57:56.285Z,98880.47
2022-09-29T16:59:59.292Z,98875.97
2022-09-29T17:02:05.915Z,98878.59
2022-09-29T17:04:09.174Z,98883.00
2022-09-29T17:06:15.305Z,98880.34
2022-09-29T17:08:27.520Z,98875.97
2022-09-29T17:10:29.360Z,98882.34
2022-09-29T17:12:31.210Z,98888.41
2022-09-29T17:14:33.439Z,98886.72
2022-09-29T17:16:35.173Z,98896.66
2022-09-29T17:18:36.959Z,98900.44
2022-09-29T17:20:38.870Z,98901.66
2022-09-29T17:22:40.720Z,98902.28
2022-09-29T17:24:42.525Z,98899.94
2022-09-29T17:26:45.372Z,98905.34
2022-09-29T17:28:47.078Z,98912.38
2022-09-29T17:30:49.316Z,98911.69
2022-09-29T17:32:54.898Z,98905.69
2022-09-29T17:34:56.605Z,98915.09
2022-09-29T17:36:59.469Z,98918.66
2022-09-29T17:39:01.532Z,98915.41
2022-09-29T17:41:04.936Z,98917.84
2022-09-29T17:43:07.809Z,98921.75
2022-09-29T17:45:10.875Z,98923.16
2022-09-29T17:47:27.184Z,98919.75
2022-09-29T17:49:29.925Z,98929.13
2022-09-29T17:51:31.809Z,98929.78
2022-09-29T17:53:33.828Z,98926.50
2022-09-29T17:55:35.635Z,98919.31
2022-09-29T17:57:37.963Z,98922.63
2022-09-29T17:59:39.695Z,98918.28
2022-09-29T18:01:41.525Z,98918.94
2022-09-29T18:03:46.241Z,98919.81
2022-09-29T18:05:49.771Z,98916.22
2022-09-29T18:07:52.360Z,98911.81
2022-09-29T18:09:54.113Z,98912.13
2022-09-29T18:11:56.027Z,98914.47
2022-09-29T18:14:00.510Z,98919.44
2022-09-29T18:16:02.480Z,98920.31
2022-09-29T18:18:05.359Z,98921.66
2022-09-29T18:20:20.459Z,98925.63
2022-09-29T18:22:22.690Z,98918.84
2022-09-29T18:24:24.622Z,98918.84
2022-09-29T18:26:26.579Z,98921.13
2022-09-29T18:28:28.367Z,98916.75
2022-09-29T18:30:32.505Z,98919.72
2022-09-29T18:32:34.407Z,98929.25
2022-09-29T18:34:36.315Z,98935.47
2022-09-29T18:38:44.793Z,98943.84
2022-09-29T18:40:46.580Z,98956.88
2022-09-29T18:42:49.870Z,98959.72
2022-09-29T18:44:51.636Z,98952.09
2022-09-29T18:46:53.486Z,98957.75
2022-09-29T18:48:55.274Z,98964.81
2022-09-29T18:50:57.977Z,98967.09
2022-09-29T18:53:01.027Z,98959.16
2022-09-29T18:55:03.278Z,98952.22
2022-09-29T18:57:05.066Z,98956.03
2022-09-29T18:59:09.255Z,98957.06
2022-09-29T19:01:13.885Z,98955.19
2022-09-29T19:03:18.003Z,98961.56
2022-09-29T19:05:22.797Z,98975.00
2022-09-29T19:07:25.229Z,98973.03
2022-09-29T19:09:31.969Z,98966.09
2022-09-29T19:11:33.922Z,98977.00
2022-09-29T19:13:35.794Z,98978.16
2022-09-29T19:15:38.472Z,98979.84
2022-09-29T19:17:40.455Z,98989.75
2022-09-29T19:19:42.151Z,98981.81
2022-09-29T19:21:43.897Z,98989.03
2022-09-29T19:23:45.903Z,98994.41
2022-09-29T19:25:48.576Z,98996.25
2022-09-29T19:27:50.494Z,98995.38
2022-09-29T19:29:58.440Z,98998.06
2022-09-29T19:32:02.631Z,98997.22
2022-09-29T19:34:04.439Z,98994.72
2022-09-29T19:36:07.560Z,98999.91
2022-09-29T19:38:09.640Z,98994.00
2022-09-29T19:40:13.543Z,98992.16
2022-09-29T19:42:15.277Z,98996.53
2022-09-29T19:44:17.151Z,98994.00
2022-09-29T19:48:38.329Z,98990.44
2022-09-29T19:50:40.082Z,98998.38
2022-09-29T19:52:41.787Z,98991.16
2022-09-29T19:54:43.639Z,98984.78
2022-09-29T19:56:48.270Z,98990.31
2022-09-29T19:58:49.957Z,98997.41
2022-09-29T20:00:57.950Z,98993.00
2022-09-29T20:02:59.803Z,98984.94
2022-09-29T20:05:01.857Z,98984.94
2022-09-29T20:07:03.711Z,98988.31
2022-09-29T20:09:05.622Z,98985.78
2022-09-29T20:11:08.780Z,98993.69
2022-09-29T20:13:10.838Z,98991.16
2022-09-29T20:15:12.586Z,98994.84
2022-09-29T20:17:14.337Z,98996.53
2022-09-29T20:19:16.855Z,98996.53
2022-09-29T20:21:27.576Z,98996.69
2022-09-29T20:23:29.309Z,98999.38
2022-09-29T20:25:30.998Z,98996.81
2022-09-29T20:27:32.687Z,98998.50
2022-09-29T20:29:34.353Z,98993.28
2022-09-29T20:31:36.270Z,98988.88
2022-09-29T20:33:38.087Z,98998.50
2022-09-29T20:35:39.919Z,98995.97
2022-09-29T20:37:41.578Z,98990.75
2022-09-29T20:39:43.363Z,99000.50
2022-09-29T20:41:45.385Z,98991.88
2022-09-29T20:43:48.117Z,98993.59
2022-09-29T20:45:49.834Z,98999.09
2022-09-29T20:47:51.486Z,98993.59
2022-09-29T20:49:53.186Z,98991.75
2022-09-29T20:51:55.021Z,98990.91
2022-09-29T20:54:01.154Z,98995.28
2022-09-29T20:56:07.946Z,98988.22
2022-09-29T20:58:09.634Z,98993.59
2022-09-29T21:00:11.842Z,99000.66
2022-09-29T21:02:13.827Z,99006.03
2022-09-29T21:04:17.686Z,98990.91
2022-09-29T21:06:23.805Z,98989.19
2022-09-29T21:08:27.608Z,98990.91
2022-09-29T21:10:29.321Z,98993.59
2022-09-29T21:12:31.695Z,99008.72
2022-09-29T21:14:33.425Z,99017.78
2022-09-29T21:16:36.208Z,99029.38
2022-09-29T21:18:37.953Z,99041.25
2022-09-29T21:20:39.620Z,99028.78
2022-09-29T21:22:41.313Z,99031.47
2022-09-29T21:24:42.965Z,99029.63
2022-09-29T21:26:44.611Z,99026.25
2022-09-29T21:28:54.381Z,99025.38
2022-09-29T21:31:12.887Z,99034.16
2022-09-29T21:33:14.650Z,99041.81
2022-09-29T21:35:16.385Z,99042.66
2022-09-29T21:37:18.205Z,99040.66
2022-09-29T21:39:20.011Z,99042.81
2022-09-29T21:41:23.041Z,99050.03
2022-09-29T21:43:24.755Z,99048.31
2022-09-29T21:45:26.544Z,99049.31
2022-09-29T21:47:28.316Z,99043.94
2022-09-29T21:49:30.043Z,99046.63
2022-09-29T21:51:36.671Z,99042.94
2022-09-29T21:53:38.875Z,99039.41
2022-09-29T21:55:43.717Z,99045.63
2022-09-29T21:57:45.383Z,99048.03
2022-09-29T21:59:47.107Z,99032.91
2022-09-29T22:01:48.923Z,99029.91
2022-09-29T22:03:51.252Z,99037.00
2022-09-29T22:05:53.071Z,99046.75
2022-09-29T22:07:54.755Z,99037.00
2022-09-29T22:09:56.505Z,99046.03
2022-09-29T22:11:58.163Z,99047.75
2022-09-29T22:14:00.614Z,99056.66
2022-09-29T22:16:06.858Z,99046.03
2022-09-29T22:18:08.603Z,99048.72
2022-09-29T22:20:10.357Z,99051.44
2022-09-29T22:22:12.092Z,99037.28
2022-09-29T22:24:13.808Z,99045.22
2022-09-29T22:26:16.546Z,99048.91
2022-09-29T22:28:18.222Z,99046.88
2022-09-29T22:30:19.983Z,99053.28
2022-09-29T22:32:21.686Z,99046.03
2022-09-29T22:34:23.387Z,99056.78
2022-09-29T22:36:26.159Z,99052.44
2022-09-29T22:38:27.855Z,99062.19
2022-09-29T22:40:29.712Z,99062.19
2022-09-29T22:42:31.362Z,99055.13
2022-09-29T22:44:33.000Z,99062.19
2022-09-29T22:46:34.759Z,99053.13
2022-09-29T22:48:36.551Z,99063.19
2022-09-29T22:50:38.251Z,99065.88
2022-09-29T22:52:39.906Z,99068.69
2022-09-29T22:54:41.614Z,99071.25
2022-09-29T22:56:43.324Z,99069.53
2022-09-29T22:58:45.436Z,99072.94
2022-09-29T23:00:47.163Z,99067.56
2022-09-29T23:02:48.860Z,99063.88
2022-09-29T23:04:50.611Z,99070.25
2022-09-29T23:06:52.566Z,99071.25
2022-09-29T23:08:54.303Z,99064.03
2022-09-29T23:10:56.137Z,99062.19
2022-09-29T23:12:57.954Z,99067.56
2022-09-29T23:14:59.675Z,99065.88
2022-09-29T23:17:01.331Z,99065.88
2022-09-29T23:19:03.068Z,99067.56
2022-09-29T23:21:05.679Z,99067.56
2022-09-29T23:23:07.378Z,99069.28
2022-09-29T23:25:09.319Z,99067.56
2022-09-29T23:27:11.180Z,99078.31
2022-09-29T23:29:13.053Z,99069.53
2022-09-29T23:31:14.863Z,99076.75
2022-09-29T23:33:16.672Z,99075.06
2022-09-29T23:35:18.404Z,99075.78
2022-09-29T23:37:20.192Z,99071.25
2022-09-29T23:39:22.143Z,99072.94
2022-09-29T23:41:24.007Z,99063.88
2022-09-29T23:43:25.724Z,99070.94
2022-09-29T23:45:27.476Z,99068.25
2022-09-29T23:47:29.202Z,99070.25
2022-09-29T23:49:30.860Z,99064.88
2022-09-29T23:51:32.584Z,99073.78
2022-09-29T23:53:34.671Z,99072.94
2022-09-29T23:55:36.442Z,99070.94
2022-09-29T23:57:38.152Z,99068.97
2022-09-29T23:59:39.881Z,99073.63
